sensor_id;sensor_type;location;lat;lon;timestamp;temperature;humidity
75985;DHT22;65033;44.660;37.758;2023-12-07T00:00:53;12.23;74.46
75985;DHT22;65033;44.660;37.758;2023-12-07T00:01:57;12.25;74.57
75985;DHT22;65033;44.660;37.758;2023-12-07T00:03:00;12.26;74.00
75985;DHT22;65033;44.660;37.758;2023-12-07T00:04:04;12.22;73.80
75985;DHT22;65033;44.660;37.758;2023-12-07T00:05:08;12.19;74.32
75985;DHT22;65033;44.660;37.758;2023-12-07T00:06:11;12.18;74.12
75985;DHT22;65033;44.660;37.758;2023-12-07T00:07:15;12.15;73.77
75985;DHT22;65033;44.660;37.758;2023-12-07T00:08:18;12.12;74.17
75985;DHT22;65033;44.660;37.758;2023-12-07T00:09:22;12.16;74.78
75985;DHT22;65033;44.660;37.758;2023-12-07T00:10:25;12.21;74.60
75985;DHT22;65033;44.660;37.758;2023-12-07T00:11:29;12.26;74.36
75985;DHT22;65033;44.660;37.758;2023-12-07T00:12:32;12.26;73.85
75985;DHT22;65033;44.660;37.758;2023-12-07T00:13:36;12.22;73.65
75985;DHT22;65033;44.660;37.758;2023-12-07T00:14:40;12.18;73.82
75985;DHT22;65033;44.660;37.758;2023-12-07T00:15:44;12.11;73.93
75985;DHT22;65033;44.660;37.758;2023-12-07T00:16:47;12.04;74.12
75985;DHT22;65033;44.660;37.758;2023-12-07T00:17:52;11.96;74.63
75985;DHT22;65033;44.660;37.758;2023-12-07T00:18:55;11.88;74.80
75985;DHT22;65033;44.660;37.758;2023-12-07T00:19:59;11.79;75.22
75985;DHT22;65033;44.660;37.758;2023-12-07T00:21:03;11.73;75.38
75985;DHT22;65033;44.660;37.758;2023-12-07T00:22:06;11.70;75.55
75985;DHT22;65033;44.660;37.758;2023-12-07T00:23:10;11.69;75.99
75985;DHT22;65033;44.660;37.758;2023-12-07T00:24:13;11.67;75.97
75985;DHT22;65033;44.660;37.758;2023-12-07T00:25:16;11.64;75.94
75985;DHT22;65033;44.660;37.758;2023-12-07T00:26:19;11.60;75.92
75985;DHT22;65033;44.660;37.758;2023-12-07T00:27:23;11.55;76.18
75985;DHT22;65033;44.660;37.758;2023-12-07T00:28:27;11.53;76.21
75985;DHT22;65033;44.660;37.758;2023-12-07T00:29:30;11.51;76.37
75985;DHT22;65033;44.660;37.758;2023-12-07T00:30:36;11.51;76.66
75985;DHT22;65033;44.660;37.758;2023-12-07T00:31:39;11.55;76.72
75985;DHT22;65033;44.660;37.758;2023-12-07T00:32:43;11.62;76.70
75985;DHT22;65033;44.660;37.758;2023-12-07T00:33:46;11.64;76.47
75985;DHT22;65033;44.660;37.758;2023-12-07T00:34:50;11.71;76.08
75985;DHT22;65033;44.660;37.758;2023-12-07T00:35:54;11.72;76.11
75985;DHT22;65033;44.660;37.758;2023-12-07T00:36:59;11.69;75.97
75985;DHT22;65033;44.660;37.758;2023-12-07T00:38:03;11.66;76.29
75985;DHT22;65033;44.660;37.758;2023-12-07T00:39:06;11.63;76.30
75985;DHT22;65033;44.660;37.758;2023-12-07T00:40:10;11.58;76.53
75985;DHT22;65033;44.660;37.758;2023-12-07T00:41:13;11.53;76.59
75985;DHT22;65033;44.660;37.758;2023-12-07T00:42:17;11.48;76.74
75985;DHT22;65033;44.660;37.758;2023-12-07T00:43:20;11.42;77.18
75985;DHT22;65033;44.660;37.758;2023-12-07T00:44:24;11.39;77.17
75985;DHT22;65033;44.660;37.758;2023-12-07T00:45:27;11.32;77.31
75985;DHT22;65033;44.660;37.758;2023-12-07T00:46:32;11.30;77.87
75985;DHT22;65033;44.660;37.758;2023-12-07T00:47:35;11.27;77.80
75985;DHT22;65033;44.660;37.758;2023-12-07T00:48:39;11.24;77.60
75985;DHT22;65033;44.660;37.758;2023-12-07T00:49:43;11.19;77.86
75985;DHT22;65033;44.660;37.758;2023-12-07T00:50:46;11.16;78.11
75985;DHT22;65033;44.660;37.758;2023-12-07T00:51:50;11.13;78.13
75985;DHT22;65033;44.660;37.758;2023-12-07T00:52:53;11.14;78.71
75985;DHT22;65033;44.660;37.758;2023-12-07T00:53:57;11.16;79.11
75985;DHT22;65033;44.660;37.758;2023-12-07T00:55:01;11.16;79.16
75985;DHT22;65033;44.660;37.758;2023-12-07T00:56:06;11.16;78.82
75985;DHT22;65033;44.660;37.758;2023-12-07T00:57:09;11.17;79.30
75985;DHT22;65033;44.660;37.758;2023-12-07T00:58:12;11.18;78.82
75985;DHT22;65033;44.660;37.758;2023-12-07T00:59:17;11.18;78.72
75985;DHT22;65033;44.660;37.758;2023-12-07T01:00:20;11.17;79.28
75985;DHT22;65033;44.660;37.758;2023-12-07T01:01:25;11.18;79.33
75985;DHT22;65033;44.660;37.758;2023-12-07T01:02:30;11.17;79.42
75985;DHT22;65033;44.660;37.758;2023-12-07T01:03:33;11.18;79.27
75985;DHT22;65033;44.660;37.758;2023-12-07T01:04:36;11.17;79.43
75985;DHT22;65033;44.660;37.758;2023-12-07T01:05:40;11.17;79.30
75985;DHT22;65033;44.660;37.758;2023-12-07T01:06:43;11.16;79.45
75985;DHT22;65033;44.660;37.758;2023-12-07T01:07:47;11.18;79.66
75985;DHT22;65033;44.660;37.758;2023-12-07T01:08:50;11.18;79.40
75985;DHT22;65033;44.660;37.758;2023-12-07T01:09:53;11.20;79.42
75985;DHT22;65033;44.660;37.758;2023-12-07T01:10:57;11.24;79.67
75985;DHT22;65033;44.660;37.758;2023-12-07T01:12:00;11.33;80.14
75985;DHT22;65033;44.660;37.758;2023-12-07T01:13:04;11.39;79.30
75985;DHT22;65033;44.660;37.758;2023-12-07T01:14:08;11.47;79.30
75985;DHT22;65033;44.660;37.758;2023-12-07T01:15:12;11.53;79.08
75985;DHT22;65033;44.660;37.758;2023-12-07T01:16:15;11.61;78.68
75985;DHT22;65033;44.660;37.758;2023-12-07T01:17:19;11.63;77.92
75985;DHT22;65033;44.660;37.758;2023-12-07T01:18:24;11.63;77.92
75985;DHT22;65033;44.660;37.758;2023-12-07T01:19:27;11.64;77.66
75985;DHT22;65033;44.660;37.758;2023-12-07T01:20:30;11.62;77.66
75985;DHT22;65033;44.660;37.758;2023-12-07T01:21:34;11.63;78.01
75985;DHT22;65033;44.660;37.758;2023-12-07T01:22:38;11.63;77.85
75985;DHT22;65033;44.660;37.758;2023-12-07T01:23:41;11.60;77.82
75985;DHT22;65033;44.660;37.758;2023-12-07T01:24:45;11.60;77.95
75985;DHT22;65033;44.660;37.758;2023-12-07T01:25:49;11.57;77.95
75985;DHT22;65033;44.660;37.758;2023-12-07T01:26:52;11.54;77.92
75985;DHT22;65033;44.660;37.758;2023-12-07T01:27:55;11.52;77.89
75985;DHT22;65033;44.660;37.758;2023-12-07T01:28:59;11.46;78.54
75985;DHT22;65033;44.660;37.758;2023-12-07T01:30:03;11.43;78.21
75985;DHT22;65033;44.660;37.758;2023-12-07T01:31:06;11.40;78.44
75985;DHT22;65033;44.660;37.758;2023-12-07T01:32:10;11.39;78.85
75985;DHT22;65033;44.660;37.758;2023-12-07T01:33:13;11.38;78.96
75985;DHT22;65033;44.660;37.758;2023-12-07T01:34:18;11.37;79.24
75985;DHT22;65033;44.660;37.758;2023-12-07T01:35:22;11.37;78.76
75985;DHT22;65033;44.660;37.758;2023-12-07T01:36:25;11.36;78.97
75985;DHT22;65033;44.660;37.758;2023-12-07T01:37:29;11.33;78.88
75985;DHT22;65033;44.660;37.758;2023-12-07T01:38:33;11.33;79.11
75985;DHT22;65033;44.660;37.758;2023-12-07T01:39:37;11.31;79.18
75985;DHT22;65033;44.660;37.758;2023-12-07T01:40:40;11.29;79.13
75985;DHT22;65033;44.660;37.758;2023-12-07T01:41:44;11.26;79.27
75985;DHT22;65033;44.660;37.758;2023-12-07T01:42:51;11.27;79.39
75985;DHT22;65033;44.660;37.758;2023-12-07T01:43:55;11.26;79.24
75985;DHT22;65033;44.660;37.758;2023-12-07T01:44:58;11.30;79.58
75985;DHT22;65033;44.660;37.758;2023-12-07T01:46:02;11.30;79.49
75985;DHT22;65033;44.660;37.758;2023-12-07T01:47:06;11.30;79.51
75985;DHT22;65033;44.660;37.758;2023-12-07T01:48:13;11.30;79.40
75985;DHT22;65033;44.660;37.758;2023-12-07T01:49:18;11.30;79.33
75985;DHT22;65033;44.660;37.758;2023-12-07T01:50:22;11.26;79.44
75985;DHT22;65033;44.660;37.758;2023-12-07T01:51:27;11.25;79.24
75985;DHT22;65033;44.660;37.758;2023-12-07T01:52:31;11.23;79.46
75985;DHT22;65033;44.660;37.758;2023-12-07T01:53:34;11.20;79.62
75985;DHT22;65033;44.660;37.758;2023-12-07T01:54:39;11.19;79.78
75985;DHT22;65033;44.660;37.758;2023-12-07T01:55:43;11.20;79.66
75985;DHT22;65033;44.660;37.758;2023-12-07T01:56:47;11.26;79.64
75985;DHT22;65033;44.660;37.758;2023-12-07T01:57:50;11.26;79.40
75985;DHT22;65033;44.660;37.758;2023-12-07T01:58:54;11.28;79.31
75985;DHT22;65033;44.660;37.758;2023-12-07T01:59:57;11.31;79.30
75985;DHT22;65033;44.660;37.758;2023-12-07T02:01:01;11.36;78.92
75985;DHT22;65033;44.660;37.758;2023-12-07T02:02:06;11.39;78.56
75985;DHT22;65033;44.660;37.758;2023-12-07T02:03:10;11.44;78.18
75985;DHT22;65033;44.660;37.758;2023-12-07T02:04:15;11.51;78.00
75985;DHT22;65033;44.660;37.758;2023-12-07T02:05:20;11.48;77.74
75985;DHT22;65033;44.660;37.758;2023-12-07T02:06:23;11.48;77.95
75985;DHT22;65033;44.660;37.758;2023-12-07T02:07:27;11.44;77.96
75985;DHT22;65033;44.660;37.758;2023-12-07T02:08:31;11.39;78.08
75985;DHT22;65033;44.660;37.758;2023-12-07T02:09:35;11.38;78.41
75985;DHT22;65033;44.660;37.758;2023-12-07T02:10:38;11.33;78.46
75985;DHT22;65033;44.660;37.758;2023-12-07T02:11:42;11.29;78.66
75985;DHT22;65033;44.660;37.758;2023-12-07T02:12:45;11.25;78.82
75985;DHT22;65033;44.660;37.758;2023-12-07T02:13:49;11.22;79.17
75985;DHT22;65033;44.660;37.758;2023-12-07T02:14:53;11.18;79.23
75985;DHT22;65033;44.660;37.758;2023-12-07T02:15:58;11.13;79.34
75985;DHT22;65033;44.660;37.758;2023-12-07T02:17:10;11.11;79.59
75985;DHT22;65033;44.660;37.758;2023-12-07T02:18:24;11.11;79.83
75985;DHT22;65033;44.660;37.758;2023-12-07T02:19:47;11.12;79.61
75985;DHT22;65033;44.660;37.758;2023-12-07T02:20:59;11.12;79.73
75985;DHT22;65033;44.660;37.758;2023-12-07T02:22:12;11.18;79.54
75985;DHT22;65033;44.660;37.758;2023-12-07T02:23:18;11.23;79.10
75985;DHT22;65033;44.660;37.758;2023-12-07T02:24:27;11.28;78.51
75985;DHT22;65033;44.660;37.758;2023-12-07T02:25:39;11.36;78.13
75985;DHT22;65033;44.660;37.758;2023-12-07T02:27:04;11.48;77.32
75985;DHT22;65033;44.660;37.758;2023-12-07T02:28:08;11.55;76.93
75985;DHT22;65033;44.660;37.758;2023-12-07T02:29:11;11.62;76.37
75985;DHT22;65033;44.660;37.758;2023-12-07T02:30:15;11.67;75.83
75985;DHT22;65033;44.660;37.758;2023-12-07T02:31:18;11.73;75.21
75985;DHT22;65033;44.660;37.758;2023-12-07T02:32:22;11.78;74.61
75985;DHT22;65033;44.660;37.758;2023-12-07T02:33:25;11.83;73.97
75985;DHT22;65033;44.660;37.758;2023-12-07T02:34:29;11.88;73.40
75985;DHT22;65033;44.660;37.758;2023-12-07T02:35:33;11.90;72.87
75985;DHT22;65033;44.660;37.758;2023-12-07T02:36:38;11.93;72.84
75985;DHT22;65033;44.660;37.758;2023-12-07T02:37:45;11.96;72.37
75985;DHT22;65033;44.660;37.758;2023-12-07T02:38:51;11.98;72.32
75985;DHT22;65033;44.660;37.758;2023-12-07T02:39:55;12.01;72.00
75985;DHT22;65033;44.660;37.758;2023-12-07T02:40:59;12.00;71.65
75985;DHT22;65033;44.660;37.758;2023-12-07T02:42:06;12.02;71.58
75985;DHT22;65033;44.660;37.758;2023-12-07T02:43:10;12.03;71.01
75985;DHT22;65033;44.660;37.758;2023-12-07T02:44:14;12.04;71.19
75985;DHT22;65033;44.660;37.758;2023-12-07T02:45:18;12.06;71.59
75985;DHT22;65033;44.660;37.758;2023-12-07T02:46:21;12.08;71.06
75985;DHT22;65033;44.660;37.758;2023-12-07T02:47:25;12.12;71.34
75985;DHT22;65033;44.660;37.758;2023-12-07T02:48:29;12.12;70.90
75985;DHT22;65033;44.660;37.758;2023-12-07T02:49:33;12.13;70.68
75985;DHT22;65033;44.660;37.758;2023-12-07T02:50:37;12.14;70.32
75985;DHT22;65033;44.660;37.758;2023-12-07T02:51:40;12.16;70.23
75985;DHT22;65033;44.660;37.758;2023-12-07T02:52:43;12.17;69.86
75985;DHT22;65033;44.660;37.758;2023-12-07T02:53:47;12.17;69.61
75985;DHT22;65033;44.660;37.758;2023-12-07T02:54:50;12.18;69.71
75985;DHT22;65033;44.660;37.758;2023-12-07T02:55:54;12.16;69.26
75985;DHT22;65033;44.660;37.758;2023-12-07T02:56:57;12.13;69.27
75985;DHT22;65033;44.660;37.758;2023-12-07T02:58:02;12.13;69.30
75985;DHT22;65033;44.660;37.758;2023-12-07T02:59:05;12.14;69.42
75985;DHT22;65033;44.660;37.758;2023-12-07T03:00:10;12.13;69.33
75985;DHT22;65033;44.660;37.758;2023-12-07T03:01:16;12.14;69.25
75985;DHT22;65033;44.660;37.758;2023-12-07T03:02:19;12.14;69.26
75985;DHT22;65033;44.660;37.758;2023-12-07T03:03:23;12.13;69.10
75985;DHT22;65033;44.660;37.758;2023-12-07T03:04:27;12.13;68.83
75985;DHT22;65033;44.660;37.758;2023-12-07T03:05:30;12.12;68.72
75985;DHT22;65033;44.660;37.758;2023-12-07T03:06:34;12.08;68.65
75985;DHT22;65033;44.660;37.758;2023-12-07T03:07:37;12.07;68.71
75985;DHT22;65033;44.660;37.758;2023-12-07T03:08:41;12.08;68.81
75985;DHT22;65033;44.660;37.758;2023-12-07T03:09:44;12.08;68.67
75985;DHT22;65033;44.660;37.758;2023-12-07T03:10:48;12.11;68.42
75985;DHT22;65033;44.660;37.758;2023-12-07T03:11:51;12.11;68.09
75985;DHT22;65033;44.660;37.758;2023-12-07T03:12:55;12.10;68.07
75985;DHT22;65033;44.660;37.758;2023-12-07T03:14:00;12.10;68.08
75985;DHT22;65033;44.660;37.758;2023-12-07T03:15:04;12.10;68.12
75985;DHT22;65033;44.660;37.758;2023-12-07T03:16:08;12.06;68.02
75985;DHT22;65033;44.660;37.758;2023-12-07T03:17:13;12.06;67.88
75985;DHT22;65033;44.660;37.758;2023-12-07T03:18:16;12.05;67.73
75985;DHT22;65033;44.660;37.758;2023-12-07T03:19:19;12.05;67.74
75985;DHT22;65033;44.660;37.758;2023-12-07T03:20:23;12.05;67.77
75985;DHT22;65033;44.660;37.758;2023-12-07T03:21:26;12.04;68.20
75985;DHT22;65033;44.660;37.758;2023-12-07T03:22:30;12.02;68.91
75985;DHT22;65033;44.660;37.758;2023-12-07T03:23:33;12.02;68.64
75985;DHT22;65033;44.660;37.758;2023-12-07T03:24:37;12.02;68.25
75985;DHT22;65033;44.660;37.758;2023-12-07T03:25:40;12.02;68.71
75985;DHT22;65033;44.660;37.758;2023-12-07T03:26:44;12.00;68.78
75985;DHT22;65033;44.660;37.758;2023-12-07T03:27:47;12.02;68.57
75985;DHT22;65033;44.660;37.758;2023-12-07T03:28:50;12.04;68.38
75985;DHT22;65033;44.660;37.758;2023-12-07T03:29:55;12.03;68.86
75985;DHT22;65033;44.660;37.758;2023-12-07T03:30:59;12.03;68.70
75985;DHT22;65033;44.660;37.758;2023-12-07T03:32:02;11.99;69.10
75985;DHT22;65033;44.660;37.758;2023-12-07T03:33:06;11.98;68.91
75985;DHT22;65033;44.660;37.758;2023-12-07T03:34:09;11.96;68.80
75985;DHT22;65033;44.660;37.758;2023-12-07T03:35:13;11.94;68.90
75985;DHT22;65033;44.660;37.758;2023-12-07T03:36:16;11.94;68.74
75985;DHT22;65033;44.660;37.758;2023-12-07T03:37:19;11.96;68.57
75985;DHT22;65033;44.660;37.758;2023-12-07T03:38:23;11.96;68.59
75985;DHT22;65033;44.660;37.758;2023-12-07T03:39:26;11.97;68.68
75985;DHT22;65033;44.660;37.758;2023-12-07T03:40:30;11.96;68.55
75985;DHT22;65033;44.660;37.758;2023-12-07T03:41:33;11.85;68.71
75985;DHT22;65033;44.660;37.758;2023-12-07T03:42:37;11.76;69.24
75985;DHT22;65033;44.660;37.758;2023-12-07T03:43:40;11.76;69.21
75985;DHT22;65033;44.660;37.758;2023-12-07T03:44:44;11.72;69.24
75985;DHT22;65033;44.660;37.758;2023-12-07T03:45:49;11.60;69.53
75985;DHT22;65033;44.660;37.758;2023-12-07T03:46:52;11.47;69.76
75985;DHT22;65033;44.660;37.758;2023-12-07T03:47:56;11.37;70.06
75985;DHT22;65033;44.660;37.758;2023-12-07T03:49:00;11.28;70.44
75985;DHT22;65033;44.660;37.758;2023-12-07T03:50:04;11.20;70.72
75985;DHT22;65033;44.660;37.758;2023-12-07T03:51:08;11.12;71.22
75985;DHT22;65033;44.660;37.758;2023-12-07T03:52:11;11.04;71.43
75985;DHT22;65033;44.660;37.758;2023-12-07T03:53:14;11.00;71.68
75985;DHT22;65033;44.660;37.758;2023-12-07T03:54:18;10.94;71.59
75985;DHT22;65033;44.660;37.758;2023-12-07T03:55:21;10.87;71.80
75985;DHT22;65033;44.660;37.758;2023-12-07T03:56:25;10.84;71.77
75985;DHT22;65033;44.660;37.758;2023-12-07T03:57:28;10.79;72.09
75985;DHT22;65033;44.660;37.758;2023-12-07T03:58:32;10.75;72.16
75985;DHT22;65033;44.660;37.758;2023-12-07T03:59:36;11.02;77.36
75985;DHT22;65033;44.660;37.758;2023-12-07T04:00:41;11.52;81.47
75985;DHT22;65033;44.660;37.758;2023-12-07T04:01:46;11.40;69.66
75985;DHT22;65033;44.660;37.758;2023-12-07T04:02:50;11.25;69.85
75985;DHT22;65033;44.660;37.758;2023-12-07T04:03:54;11.11;69.99
75985;DHT22;65033;44.660;37.758;2023-12-07T04:04:58;10.99;70.81
75985;DHT22;65033;44.660;37.758;2023-12-07T04:06:05;10.95;71.16
75985;DHT22;65033;44.660;37.758;2023-12-07T04:07:08;10.88;71.25
75985;DHT22;65033;44.660;37.758;2023-12-07T04:08:12;10.86;71.30
75985;DHT22;65033;44.660;37.758;2023-12-07T04:09:16;10.85;71.35
75985;DHT22;65033;44.660;37.758;2023-12-07T04:10:19;10.87;71.45
75985;DHT22;65033;44.660;37.758;2023-12-07T04:11:22;10.88;71.61
75985;DHT22;65033;44.660;37.758;2023-12-07T04:12:26;10.86;71.29
75985;DHT22;65033;44.660;37.758;2023-12-07T04:13:29;10.80;71.64
75985;DHT22;65033;44.660;37.758;2023-12-07T04:14:33;10.80;71.92
75985;DHT22;65033;44.660;37.758;2023-12-07T04:15:36;10.74;72.07
75985;DHT22;65033;44.660;37.758;2023-12-07T04:16:40;10.67;72.41
75985;DHT22;65033;44.660;37.758;2023-12-07T04:17:45;10.62;72.38
75985;DHT22;65033;44.660;37.758;2023-12-07T04:18:48;10.56;72.89
75985;DHT22;65033;44.660;37.758;2023-12-07T04:19:52;10.52;72.93
75985;DHT22;65033;44.660;37.758;2023-12-07T04:20:55;10.52;73.02
75985;DHT22;65033;44.660;37.758;2023-12-07T04:21:59;10.51;73.46
75985;DHT22;65033;44.660;37.758;2023-12-07T04:23:02;10.51;73.36
75985;DHT22;65033;44.660;37.758;2023-12-07T04:24:06;10.51;73.10
75985;DHT22;65033;44.660;37.758;2023-12-07T04:25:09;10.52;73.12
75985;DHT22;65033;44.660;37.758;2023-12-07T04:26:13;10.51;73.23
75985;DHT22;65033;44.660;37.758;2023-12-07T04:27:17;10.49;73.38
75985;DHT22;65033;44.660;37.758;2023-12-07T04:28:21;10.49;73.51
75985;DHT22;65033;44.660;37.758;2023-12-07T04:29:24;10.48;73.22
75985;DHT22;65033;44.660;37.758;2023-12-07T04:30:27;10.46;73.32
75985;DHT22;65033;44.660;37.758;2023-12-07T04:31:31;10.45;73.38
75985;DHT22;65033;44.660;37.758;2023-12-07T04:32:34;10.43;73.41
75985;DHT22;65033;44.660;37.758;2023-12-07T04:33:39;10.41;73.51
75985;DHT22;65033;44.660;37.758;2023-12-07T04:34:42;10.41;73.84
75985;DHT22;65033;44.660;37.758;2023-12-07T04:35:46;10.42;73.77
75985;DHT22;65033;44.660;37.758;2023-12-07T04:36:50;10.48;73.74
75985;DHT22;65033;44.660;37.758;2023-12-07T04:37:53;10.53;73.58
75985;DHT22;65033;44.660;37.758;2023-12-07T04:38:57;10.57;73.38
75985;DHT22;65033;44.660;37.758;2023-12-07T04:40:00;10.63;73.33
75985;DHT22;65033;44.660;37.758;2023-12-07T04:41:04;10.68;72.93
75985;DHT22;65033;44.660;37.758;2023-12-07T04:42:07;10.68;72.70
75985;DHT22;65033;44.660;37.758;2023-12-07T04:43:11;10.64;72.89
75985;DHT22;65033;44.660;37.758;2023-12-07T04:44:14;10.66;73.13
75985;DHT22;65033;44.660;37.758;2023-12-07T04:45:18;10.93;81.80
75985;DHT22;65033;44.660;37.758;2023-12-07T04:46:21;12.04;94.03
75985;DHT22;65033;44.660;37.758;2023-12-07T04:47:25;12.01;84.32
75985;DHT22;65033;44.660;37.758;2023-12-07T04:48:28;11.89;70.01
75985;DHT22;65033;44.660;37.758;2023-12-07T04:49:33;11.74;69.29
75985;DHT22;65033;44.660;37.758;2023-12-07T04:50:36;11.60;69.29
75985;DHT22;65033;44.660;37.758;2023-12-07T04:51:40;11.40;70.00
75985;DHT22;65033;44.660;37.758;2023-12-07T04:52:45;11.26;70.74
75985;DHT22;65033;44.660;37.758;2023-12-07T04:53:48;11.22;71.06
75985;DHT22;65033;44.660;37.758;2023-12-07T04:54:52;11.13;71.42
75985;DHT22;65033;44.660;37.758;2023-12-07T04:55:55;11.08;71.78
75985;DHT22;65033;44.660;37.758;2023-12-07T04:56:58;11.04;71.97
75985;DHT22;65033;44.660;37.758;2023-12-07T04:58:02;11.03;71.95
75985;DHT22;65033;44.660;37.758;2023-12-07T04:59:05;11.00;72.16
75985;DHT22;65033;44.660;37.758;2023-12-07T05:00:10;11.02;72.08
75985;DHT22;65033;44.660;37.758;2023-12-07T05:01:15;11.04;72.06
75985;DHT22;65033;44.660;37.758;2023-12-07T05:02:18;10.99;71.84
75985;DHT22;65033;44.660;37.758;2023-12-07T05:03:22;10.94;72.21
75985;DHT22;65033;44.660;37.758;2023-12-07T05:04:26;10.88;72.58
75985;DHT22;65033;44.660;37.758;2023-12-07T05:05:30;10.85;72.73
75985;DHT22;65033;44.660;37.758;2023-12-07T05:06:35;10.83;72.63
75985;DHT22;65033;44.660;37.758;2023-12-07T05:07:38;10.82;72.74
75985;DHT22;65033;44.660;37.758;2023-12-07T05:08:42;10.82;73.12
75985;DHT22;65033;44.660;37.758;2023-12-07T05:09:46;10.85;72.81
75985;DHT22;65033;44.660;37.758;2023-12-07T05:10:49;10.88;72.59
75985;DHT22;65033;44.660;37.758;2023-12-07T05:11:54;10.85;72.38
75985;DHT22;65033;44.660;37.758;2023-12-07T05:12:57;10.81;72.61
75985;DHT22;65033;44.660;37.758;2023-12-07T05:14:01;10.77;72.70
75985;DHT22;65033;44.660;37.758;2023-12-07T05:15:07;10.73;72.96
75985;DHT22;65033;44.660;37.758;2023-12-07T05:16:11;10.71;72.99
75985;DHT22;65033;44.660;37.758;2023-12-07T05:17:15;10.71;72.97
75985;DHT22;65033;44.660;37.758;2023-12-07T05:18:18;10.68;72.87
75985;DHT22;65033;44.660;37.758;2023-12-07T05:19:22;10.65;73.04
75985;DHT22;65033;44.660;37.758;2023-12-07T05:20:25;10.66;72.99
75985;DHT22;65033;44.660;37.758;2023-12-07T05:21:32;10.63;72.90
75985;DHT22;65033;44.660;37.758;2023-12-07T05:22:36;10.57;73.31
75985;DHT22;65033;44.660;37.758;2023-12-07T05:23:39;10.50;73.24
75985;DHT22;65033;44.660;37.758;2023-12-07T05:24:43;10.50;73.49
75985;DHT22;65033;44.660;37.758;2023-12-07T05:25:46;10.49;73.52
75985;DHT22;65033;44.660;37.758;2023-12-07T05:26:50;11.16;88.04
75985;DHT22;65033;44.660;37.758;2023-12-07T05:27:54;11.81;88.05
75985;DHT22;65033;44.660;37.758;2023-12-07T05:28:58;11.89;71.00
75985;DHT22;65033;44.660;37.758;2023-12-07T05:30:02;11.73;68.68
75985;DHT22;65033;44.660;37.758;2023-12-07T05:31:06;11.55;69.08
75985;DHT22;65033;44.660;37.758;2023-12-07T05:32:10;11.42;69.29
75985;DHT22;65033;44.660;37.758;2023-12-07T05:33:13;11.34;69.70
75985;DHT22;65033;44.660;37.758;2023-12-07T05:34:17;11.26;69.86
75985;DHT22;65033;44.660;37.758;2023-12-07T05:35:21;11.16;70.51
75985;DHT22;65033;44.660;37.758;2023-12-07T05:36:24;11.07;70.84
75985;DHT22;65033;44.660;37.758;2023-12-07T05:37:30;10.97;71.24
75985;DHT22;65033;44.660;37.758;2023-12-07T05:38:34;10.92;71.67
75985;DHT22;65033;44.660;37.758;2023-12-07T05:39:37;10.92;71.76
75985;DHT22;65033;44.660;37.758;2023-12-07T05:40:41;10.87;71.83
75985;DHT22;65033;44.660;37.758;2023-12-07T05:41:50;10.81;72.12
75985;DHT22;65033;44.660;37.758;2023-12-07T05:42:54;10.74;72.68
75985;DHT22;65033;44.660;37.758;2023-12-07T05:43:58;10.73;72.63
75985;DHT22;65033;44.660;37.758;2023-12-07T05:45:02;10.75;72.48
75985;DHT22;65033;44.660;37.758;2023-12-07T05:46:06;10.71;72.55
75985;DHT22;65033;44.660;37.758;2023-12-07T05:47:09;10.71;72.91
75985;DHT22;65033;44.660;37.758;2023-12-07T05:48:13;10.72;72.67
75985;DHT22;65033;44.660;37.758;2023-12-07T05:49:17;10.70;72.61
75985;DHT22;65033;44.660;37.758;2023-12-07T05:50:20;10.68;72.60
75985;DHT22;65033;44.660;37.758;2023-12-07T05:51:24;10.65;72.64
75985;DHT22;65033;44.660;37.758;2023-12-07T05:52:27;10.63;72.81
75985;DHT22;65033;44.660;37.758;2023-12-07T05:53:32;10.63;72.96
75985;DHT22;65033;44.660;37.758;2023-12-07T05:54:36;10.62;72.98
75985;DHT22;65033;44.660;37.758;2023-12-07T05:55:39;10.60;72.89
75985;DHT22;65033;44.660;37.758;2023-12-07T05:56:43;10.58;72.81
75985;DHT22;65033;44.660;37.758;2023-12-07T05:57:46;10.57;72.99
75985;DHT22;65033;44.660;37.758;2023-12-07T05:58:49;10.56;72.92
75985;DHT22;65033;44.660;37.758;2023-12-07T05:59:53;10.54;73.15
75985;DHT22;65033;44.660;37.758;2023-12-07T06:00:58;10.54;73.10
75985;DHT22;65033;44.660;37.758;2023-12-07T06:02:03;10.52;73.24
75985;DHT22;65033;44.660;37.758;2023-12-07T06:03:08;10.53;73.39
75985;DHT22;65033;44.660;37.758;2023-12-07T06:04:12;10.55;73.47
75985;DHT22;65033;44.660;37.758;2023-12-07T06:05:16;10.56;73.30
75985;DHT22;65033;44.660;37.758;2023-12-07T06:06:19;10.56;73.32
75985;DHT22;65033;44.660;37.758;2023-12-07T06:07:24;10.56;73.10
75985;DHT22;65033;44.660;37.758;2023-12-07T06:08:28;10.56;73.19
75985;DHT22;65033;44.660;37.758;2023-12-07T06:09:32;10.56;73.15
75985;DHT22;65033;44.660;37.758;2023-12-07T06:10:37;10.54;73.22
75985;DHT22;65033;44.660;37.758;2023-12-07T06:11:41;10.55;73.33
75985;DHT22;65033;44.660;37.758;2023-12-07T06:12:45;11.27;85.72
75985;DHT22;65033;44.660;37.758;2023-12-07T06:13:48;11.83;79.49
75985;DHT22;65033;44.660;37.758;2023-12-07T06:14:52;11.76;68.93
75985;DHT22;65033;44.660;37.758;2023-12-07T06:15:56;11.62;69.25
75985;DHT22;65033;44.660;37.758;2023-12-07T06:16:59;11.47;69.71
75985;DHT22;65033;44.660;37.758;2023-12-07T06:18:03;11.39;70.34
75985;DHT22;65033;44.660;37.758;2023-12-07T06:19:06;11.29;70.68
75985;DHT22;65033;44.660;37.758;2023-12-07T06:20:10;11.23;70.90
75985;DHT22;65033;44.660;37.758;2023-12-07T06:21:14;11.14;71.28
75985;DHT22;65033;44.660;37.758;2023-12-07T06:22:17;11.12;71.55
75985;DHT22;65033;44.660;37.758;2023-12-07T06:23:21;11.11;71.55
75985;DHT22;65033;44.660;37.758;2023-12-07T06:24:24;11.04;71.60
75985;DHT22;65033;44.660;37.758;2023-12-07T06:25:29;11.08;71.19
75985;DHT22;65033;44.660;37.758;2023-12-07T06:26:33;11.07;71.41
75985;DHT22;65033;44.660;37.758;2023-12-07T06:27:37;11.01;71.71
75985;DHT22;65033;44.660;37.758;2023-12-07T06:28:40;11.00;71.89
75985;DHT22;65033;44.660;37.758;2023-12-07T06:29:45;11.27;79.69
75985;DHT22;65033;44.660;37.758;2023-12-07T06:30:49;11.88;80.88
75985;DHT22;65033;44.660;37.758;2023-12-07T06:31:53;12.30;77.64
75985;DHT22;65033;44.660;37.758;2023-12-07T06:32:56;12.45;68.00
75985;DHT22;65033;44.660;37.758;2023-12-07T06:34:00;12.23;67.13
75985;DHT22;65033;44.660;37.758;2023-12-07T06:35:04;12.08;67.52
75985;DHT22;65033;44.660;37.758;2023-12-07T06:36:17;11.89;68.24
75985;DHT22;65033;44.660;37.758;2023-12-07T06:37:20;11.76;68.92
75985;DHT22;65033;44.660;37.758;2023-12-07T06:38:24;11.63;69.41